createdAt,value
2023-09-10T00:01:24.597Z,25.20
2023-09-10T00:03:52.691Z,25.30
2023-09-10T00:06:20.733Z,25.20
2023-09-10T00:08:48.773Z,25.20
2023-09-10T00:11:16.849Z,25.20
2023-09-10T00:13:44.981Z,25.20
2023-09-10T00:16:13.081Z,25.20
2023-09-10T00:18:42.559Z,25.10
2023-09-10T00:21:11.084Z,25.10
2023-09-10T00:23:40.007Z,25.10
2023-09-10T00:26:08.897Z,25.10
2023-09-10T00:28:37.142Z,25.10
2023-09-10T00:31:06.050Z,25.00
2023-09-10T00:33:34.114Z,25.10
2023-09-10T00:36:03.591Z,25.00
2023-09-10T00:38:31.671Z,25.00
2023-09-10T00:40:59.749Z,25.00
2023-09-10T00:43:27.791Z,25.00
2023-09-10T00:45:56.066Z,24.90
2023-09-10T00:48:24.474Z,24.90
2023-09-10T00:50:52.982Z,24.90
2023-09-10T00:53:23.833Z,24.90
2023-09-10T00:55:52.625Z,24.80
2023-09-10T00:58:20.760Z,24.90
2023-09-10T01:00:49.636Z,24.80
2023-09-10T01:03:17.942Z,24.80
2023-09-10T01:05:46.109Z,24.80
2023-09-10T01:08:14.288Z,24.80
2023-09-10T01:10:51.376Z,24.80
2023-09-10T01:13:29.260Z,24.80
2023-09-10T01:16:02.116Z,24.80
2023-09-10T01:18:35.781Z,24.80
2023-09-10T01:21:27.323Z,24.70
2023-09-10T01:24:01.313Z,24.70
2023-09-10T01:26:30.774Z,24.70
2023-09-10T01:28:59.019Z,24.70
2023-09-10T01:31:28.052Z,24.70
2023-09-10T01:33:59.401Z,24.70
2023-09-10T01:36:36.094Z,24.70
2023-09-10T01:39:10.192Z,24.70
2023-09-10T01:41:41.354Z,24.60
2023-09-10T01:44:10.659Z,24.60
2023-09-10T01:46:39.201Z,24.60
2023-09-10T01:49:08.460Z,24.50
2023-09-10T01:51:36.616Z,24.50
2023-09-10T01:54:05.055Z,24.50
2023-09-10T01:56:33.234Z,24.50
2023-09-10T01:59:02.690Z,24.50
2023-09-10T02:01:30.938Z,24.50
2023-09-10T02:03:59.208Z,24.50
2023-09-10T02:06:28.217Z,24.50
2023-09-10T02:08:56.319Z,24.50
2023-09-10T02:11:24.378Z,24.40
2023-09-10T02:13:54.965Z,24.40
2023-09-10T02:16:24.892Z,24.40
2023-09-10T02:18:52.983Z,24.40
2023-09-10T02:21:21.173Z,24.30
2023-09-10T02:23:49.120Z,24.30
2023-09-10T02:26:17.569Z,24.30
2023-09-10T02:28:45.642Z,24.30
2023-09-10T02:31:13.755Z,24.30
2023-09-10T02:33:43.206Z,24.20
2023-09-10T02:36:11.244Z,24.20
2023-09-10T02:38:39.491Z,24.20
2023-09-10T02:41:07.705Z,24.20
2023-09-10T02:43:35.853Z,24.20
2023-09-10T02:46:04.374Z,24.10
2023-09-10T02:48:32.542Z,24.10
2023-09-10T02:51:01.906Z,24.10
2023-09-10T02:53:29.883Z,24.10
2023-09-10T02:56:01.983Z,24.00
2023-09-10T02:58:33.418Z,24.00
2023-09-10T03:01:06.008Z,24.00
2023-09-10T03:03:34.877Z,24.00
2023-09-10T03:06:04.491Z,24.00
2023-09-10T03:08:37.113Z,24.00
2023-09-10T03:11:06.266Z,24.00
2023-09-10T03:13:34.427Z,23.90
2023-09-10T03:16:02.532Z,23.90
2023-09-10T03:18:30.667Z,23.90
2023-09-10T03:20:58.747Z,23.90
2023-09-10T03:23:28.321Z,23.90
2023-09-10T03:25:56.543Z,23.90
2023-09-10T03:28:24.686Z,23.90
2023-09-10T03:30:58.624Z,23.80
2023-09-10T03:33:26.724Z,23.90
2023-09-10T03:35:54.879Z,23.80
2023-09-10T03:38:22.982Z,23.80
2023-09-10T03:40:52.525Z,23.80
2023-09-10T03:43:21.828Z,23.80
2023-09-10T03:45:51.994Z,23.80
2023-09-10T03:48:20.044Z,23.80
2023-09-10T03:50:48.192Z,23.70
2023-09-10T03:53:16.308Z,23.70
2023-09-10T03:55:44.376Z,23.70
2023-09-10T03:58:13.924Z,23.70
2023-09-10T04:00:42.074Z,23.70
2023-09-10T04:03:10.286Z,23.70
2023-09-10T04:05:38.421Z,23.70
2023-09-10T04:08:07.746Z,23.70
2023-09-10T04:10:35.807Z,23.70
2023-09-10T04:13:03.921Z,23.70
2023-09-10T04:15:33.679Z,23.70
2023-09-10T04:18:01.807Z,23.70
2023-09-10T04:20:29.924Z,23.70
2023-09-10T04:22:58.252Z,23.70
2023-09-10T04:25:26.314Z,23.70
2023-09-10T04:27:54.391Z,23.70
2023-09-10T04:30:22.430Z,23.60
2023-09-10T04:32:51.831Z,23.70
2023-09-10T04:35:20.039Z,23.70
2023-09-10T04:37:48.108Z,23.70
2023-09-10T04:40:17.273Z,23.60
2023-09-10T04:42:45.312Z,23.60
2023-09-10T04:45:13.365Z,23.60
2023-09-10T04:47:41.368Z,23.60
2023-09-10T04:50:13.865Z,23.60
2023-09-10T04:52:42.050Z,23.60
2023-09-10T04:55:10.262Z,23.60
2023-09-10T04:57:38.311Z,23.60
2023-09-10T05:00:10.041Z,23.60
2023-09-10T05:02:38.420Z,23.60
2023-09-10T05:05:07.565Z,23.60
2023-09-10T05:07:37.123Z,23.60
2023-09-10T05:10:05.487Z,23.50
2023-09-10T05:12:33.529Z,23.50
2023-09-10T05:15:01.570Z,23.50
2023-09-10T05:17:29.703Z,23.50
2023-09-10T05:19:58.017Z,23.50
2023-09-10T05:22:26.093Z,23.50
2023-09-10T05:24:57.452Z,23.50
2023-09-10T05:27:25.503Z,23.50
2023-09-10T05:29:53.728Z,23.50
2023-09-10T05:32:21.778Z,23.50
2023-09-10T05:34:49.798Z,23.50
2023-09-10T05:37:17.854Z,23.50
2023-09-10T05:39:46.896Z,23.50
2023-09-10T05:42:16.281Z,23.50
2023-09-10T05:44:43.300Z,23.50
2023-09-10T05:47:11.410Z,23.50
2023-09-10T05:49:39.710Z,23.50
2023-09-10T05:52:07.779Z,23.50
2023-09-10T05:54:35.739Z,23.50
2023-09-10T05:57:04.048Z,23.50
2023-09-10T05:59:33.386Z,23.50
2023-09-10T06:02:01.916Z,23.50
2023-09-10T06:04:30.030Z,23.50
2023-09-10T06:06:58.275Z,23.50
2023-09-10T06:09:26.265Z,23.50
2023-09-10T06:11:54.210Z,23.50
2023-09-10T06:14:22.222Z,23.50
2023-09-10T06:16:51.727Z,23.50
2023-09-10T06:19:19.803Z,23.50
2023-09-10T06:21:47.961Z,23.50
2023-09-10T06:24:15.969Z,23.50
2023-09-10T06:26:44.572Z,23.50
2023-09-10T06:29:15.546Z,23.50
2023-09-10T06:31:43.723Z,23.50
2023-09-10T06:34:13.079Z,23.50
2023-09-10T06:36:41.196Z,23.60
2023-09-10T06:39:09.199Z,23.60
2023-09-10T06:41:37.263Z,23.60
2023-09-10T06:44:05.562Z,23.60
2023-09-10T06:46:33.557Z,23.60
2023-09-10T06:49:01.531Z,23.60
2023-09-10T06:51:30.825Z,23.60
2023-09-10T06:53:58.820Z,23.70
2023-09-10T06:56:27.282Z,23.70
2023-09-10T06:58:55.287Z,23.70
2023-09-10T07:01:23.497Z,23.70
2023-09-10T07:03:54.269Z,23.70
2023-09-10T07:06:22.211Z,23.70
2023-09-10T07:08:51.599Z,23.70
2023-09-10T07:11:20.003Z,23.70
2023-09-10T07:13:48.091Z,23.70
2023-09-10T07:16:16.687Z,23.70
2023-09-10T07:18:44.901Z,23.70
2023-09-10T07:21:12.813Z,23.70
2023-09-10T07:23:40.773Z,23.80
2023-09-10T07:26:10.079Z,23.80
2023-09-10T07:28:38.379Z,23.80
2023-09-10T07:31:08.970Z,23.90
2023-09-10T07:33:37.006Z,23.90
2023-09-10T07:36:05.376Z,23.90
2023-09-10T07:38:33.656Z,23.90
2023-09-10T07:41:01.711Z,23.90
2023-09-10T07:43:31.154Z,24.00
2023-09-10T07:45:59.182Z,24.00
2023-09-10T07:48:27.302Z,24.10
2023-09-10T07:50:56.849Z,24.10
2023-09-10T07:53:25.059Z,24.10
2023-09-10T07:55:53.924Z,24.10
2023-09-10T07:58:21.924Z,24.20
2023-09-10T08:00:54.614Z,24.30
2023-09-10T08:03:22.642Z,24.30
2023-09-10T08:05:50.788Z,24.30
2023-09-10T08:08:18.786Z,24.30
2023-09-10T08:10:47.654Z,24.40
2023-09-10T08:13:16.341Z,24.50
2023-09-10T08:15:44.713Z,24.50
2023-09-10T08:18:14.687Z,24.50
2023-09-10T08:20:43.771Z,24.50
2023-09-10T08:23:12.772Z,24.50
2023-09-10T08:25:40.885Z,24.60
2023-09-10T08:28:08.947Z,24.70
2023-09-10T08:30:36.927Z,24.70
2023-09-10T08:33:05.342Z,24.70
2023-09-10T08:35:47.136Z,24.80
2023-09-10T08:38:15.695Z,24.80
2023-09-10T08:40:50.261Z,24.90
2023-09-10T08:43:23.016Z,25.00
2023-09-10T08:45:51.817Z,25.10
2023-09-10T08:48:21.638Z,25.10
2023-09-10T08:50:51.169Z,25.10
2023-09-10T08:53:21.867Z,25.20
2023-09-10T08:55:50.777Z,25.20
2023-09-10T08:58:19.842Z,25.30
2023-09-10T09:00:51.097Z,25.30
2023-09-10T09:03:19.363Z,25.40
2023-09-10T09:05:50.958Z,25.40
2023-09-10T09:08:24.995Z,25.40
2023-09-10T09:10:53.715Z,25.50
2023-09-10T09:13:24.063Z,25.50
2023-09-10T09:15:53.116Z,25.60
2023-09-10T09:18:22.599Z,25.70
2023-09-10T09:20:54.075Z,25.80
2023-09-10T09:23:27.615Z,25.80
2023-09-10T09:25:57.500Z,25.80
2023-09-10T09:28:26.138Z,25.90
2023-09-10T09:30:54.684Z,25.90
2023-09-10T09:33:22.817Z,26.00
2023-09-10T09:35:52.126Z,26.00
2023-09-10T09:38:20.132Z,26.10
2023-09-10T09:40:48.827Z,26.20
2023-09-10T09:43:20.299Z,26.30
2023-09-10T09:45:49.551Z,26.30
2023-09-10T09:48:18.537Z,26.40
2023-09-10T09:50:48.081Z,26.50
2023-09-10T09:53:17.555Z,26.50
2023-09-10T09:55:46.626Z,26.50
2023-09-10T09:58:14.589Z,26.60
2023-09-10T10:00:42.550Z,26.60
2023-09-10T10:03:13.053Z,26.70
2023-09-10T10:05:41.128Z,26.70
2023-09-10T10:08:09.666Z,26.80
2023-09-10T10:10:46.802Z,26.80
2023-09-10T10:13:16.702Z,26.90
2023-09-10T10:15:46.087Z,26.90
2023-09-10T10:18:15.845Z,27.00
2023-09-10T10:20:47.410Z,27.10
2023-09-10T10:23:25.576Z,27.10
2023-09-10T10:25:59.238Z,27.10
2023-09-10T10:28:28.371Z,27.20
2023-09-10T10:31:03.889Z,27.10
2023-09-10T10:33:33.295Z,27.20
2023-09-10T10:36:10.531Z,27.20
2023-09-10T10:38:45.548Z,27.30
2023-09-10T10:41:19.105Z,27.30
2023-09-10T10:43:50.788Z,27.40
2023-09-10T10:46:21.037Z,27.40
2023-09-10T10:48:49.640Z,27.40
2023-09-10T10:51:19.494Z,27.50
2023-09-10T10:53:49.444Z,27.50
2023-09-10T10:56:19.512Z,27.50
2023-09-10T10:58:48.213Z,27.60
2023-09-10T11:01:16.274Z,27.60
2023-09-10T11:03:46.937Z,27.70
2023-09-10T11:06:15.679Z,27.70
2023-09-10T11:08:47.202Z,27.80
2023-09-10T11:11:51.298Z,27.80
2023-09-10T11:14:19.324Z,27.80
2023-09-10T11:16:47.659Z,27.90
2023-09-10T11:19:44.464Z,28.00
2023-09-10T11:22:12.425Z,28.00
2023-09-10T11:24:42.819Z,28.00
2023-09-10T11:27:23.116Z,28.10
2023-09-10T11:30:15.204Z,28.10
2023-09-10T11:32:46.033Z,28.10
2023-09-10T11:35:28.625Z,28.20
2023-09-10T11:37:58.838Z,28.20
2023-09-10T11:40:27.805Z,28.20
2023-09-10T11:42:57.608Z,28.20
2023-09-10T11:45:31.393Z,28.20
2023-09-10T11:47:59.522Z,28.30
2023-09-10T11:50:28.221Z,28.30
2023-09-10T11:52:56.425Z,28.40
2023-09-10T11:55:24.673Z,28.40
2023-09-10T11:57:54.943Z,28.40
2023-09-10T12:00:25.052Z,28.40
2023-09-10T12:02:56.643Z,28.50
2023-09-10T12:05:28.390Z,28.50
2023-09-10T12:07:59.223Z,28.50
2023-09-10T12:10:27.742Z,28.60
2023-09-10T12:12:56.880Z,28.60
2023-09-10T12:15:27.357Z,28.70
2023-09-10T12:17:55.614Z,28.70
2023-09-10T12:20:23.749Z,28.70
2023-09-10T12:22:52.040Z,28.70
2023-09-10T12:25:21.634Z,28.70
2023-09-10T12:27:49.919Z,28.70
2023-09-10T12:30:17.972Z,28.80
2023-09-10T12:32:47.373Z,28.80
2023-09-10T12:35:15.791Z,28.90
2023-09-10T12:37:51.992Z,28.90
2023-09-10T12:40:20.816Z,28.90
2023-09-10T12:42:49.153Z,28.90
2023-09-10T12:45:17.489Z,29.00
2023-09-10T12:47:47.331Z,29.10
2023-09-10T12:50:15.746Z,29.10
2023-09-10T12:52:43.723Z,29.10
2023-09-10T12:55:11.701Z,29.20
2023-09-10T12:57:39.708Z,29.20
2023-09-10T13:00:09.747Z,29.20
2023-09-10T13:02:37.857Z,29.30
2023-09-10T13:05:07.650Z,29.30
2023-09-10T13:07:35.881Z,29.40
2023-09-10T13:10:04.658Z,29.40
2023-09-10T13:12:32.635Z,29.40
2023-09-10T13:15:00.643Z,29.40
2023-09-10T13:17:28.725Z,29.50
2023-09-10T13:19:56.987Z,29.50
2023-09-10T13:22:26.288Z,29.50
2023-09-10T13:24:55.566Z,29.50
2023-09-10T13:27:23.764Z,29.60
2023-09-10T13:29:51.902Z,29.60
2023-09-10T13:32:19.883Z,29.70
2023-09-10T13:34:47.947Z,29.70
2023-09-10T13:37:15.937Z,29.80
2023-09-10T13:39:45.258Z,29.90
2023-09-10T13:42:13.681Z,29.90
2023-09-10T13:44:41.633Z,30.10
2023-09-10T13:47:09.616Z,30.10
2023-09-10T13:49:37.596Z,30.20
2023-09-10T13:52:06.225Z,30.40
2023-09-10T13:54:34.192Z,30.40
2023-09-10T13:57:03.533Z,30.50
2023-09-10T13:59:31.541Z,30.50
2023-09-10T14:01:59.648Z,30.60
2023-09-10T14:04:27.632Z,30.60
2023-09-10T14:06:55.647Z,30.70
2023-09-10T14:09:23.608Z,30.80
2023-09-10T14:11:51.547Z,30.80
2023-09-10T14:14:21.419Z,30.80
2023-09-10T14:16:49.507Z,30.80
2023-09-10T14:19:17.434Z,30.80
2023-09-10T14:21:45.385Z,30.90
2023-09-10T14:24:13.364Z,30.90
2023-09-10T14:26:41.387Z,30.90
2023-09-10T14:29:09.462Z,30.90
2023-09-10T14:31:39.029Z,31.00
2023-09-10T14:34:07.008Z,31.00
2023-09-10T14:36:34.998Z,31.10
2023-09-10T14:39:03.458Z,31.20
2023-09-10T14:41:31.597Z,31.20
2023-09-10T14:43:59.620Z,31.20
2023-09-10T14:46:27.714Z,31.30
2023-09-10T14:48:57.071Z,31.40
2023-09-10T14:51:25.035Z,31.40
2023-09-10T14:53:53.045Z,31.50
2023-09-10T14:56:21.256Z,31.50
2023-09-10T14:58:50.766Z,31.50
2023-09-10T15:01:21.147Z,31.50
2023-09-10T15:03:50.000Z,31.50
2023-09-10T15:06:19.436Z,31.50
2023-09-10T15:08:47.487Z,31.50
2023-09-10T15:11:15.460Z,31.50
2023-09-10T15:13:43.614Z,31.50
2023-09-10T15:16:11.807Z,31.60
2023-09-10T15:18:39.825Z,31.50
2023-09-10T15:21:07.859Z,31.60
2023-09-10T15:23:37.375Z,31.60
2023-09-10T15:26:05.399Z,31.60
2023-09-10T15:28:33.593Z,31.60
2023-09-10T15:31:01.613Z,31.60
2023-09-10T15:33:29.695Z,31.70
2023-09-10T15:35:57.705Z,31.70
2023-09-10T15:38:25.986Z,31.70
2023-09-10T15:40:56.096Z,31.70
2023-09-10T15:43:24.325Z,31.70
2023-09-10T15:45:52.349Z,31.70
2023-09-10T15:48:20.393Z,31.70
2023-09-10T15:50:48.619Z,31.70
2023-09-10T15:53:17.091Z,31.60
2023-09-10T15:55:45.096Z,31.60
2023-09-10T15:58:14.490Z,31.50
2023-09-10T16:00:42.772Z,31.40
2023-09-10T16:03:11.460Z,31.30
2023-09-10T16:05:40.439Z,31.30
2023-09-10T16:08:08.494Z,31.20
2023-09-10T16:10:37.179Z,31.10
2023-09-10T16:13:06.449Z,31.00
2023-09-10T16:15:35.795Z,31.00
2023-09-10T16:18:03.974Z,30.90
2023-09-10T16:20:32.137Z,30.90
2023-09-10T16:23:00.220Z,30.80
2023-09-10T16:25:28.246Z,30.80
2023-09-10T16:27:56.268Z,30.80
2023-09-10T16:30:24.380Z,30.80
2023-09-10T16:32:53.734Z,30.70
2023-09-10T16:35:21.826Z,30.60
2023-09-10T16:37:49.873Z,30.60
2023-09-10T16:40:18.002Z,30.60
2023-09-10T16:42:45.971Z,30.60
2023-09-10T16:45:13.953Z,30.50
2023-09-10T16:47:42.454Z,30.50
2023-09-10T16:50:12.536Z,30.50
2023-09-10T16:52:40.721Z,30.50
2023-09-10T16:55:09.868Z,30.50
2023-09-10T16:57:37.822Z,30.40
2023-09-10T17:00:07.356Z,30.40
2023-09-10T17:02:36.576Z,30.30
2023-09-10T17:05:04.894Z,30.30
2023-09-10T17:07:36.285Z,30.30
2023-09-10T17:10:04.959Z,30.30
2023-09-10T17:12:32.961Z,30.30
2023-09-10T17:15:01.726Z,30.20
2023-09-10T17:17:29.742Z,30.20
2023-09-10T17:19:57.702Z,30.20
2023-09-10T17:22:25.623Z,30.20
2023-09-10T17:24:55.034Z,30.20
2023-09-10T17:27:22.968Z,30.20
2023-09-10T17:29:55.406Z,30.10
2023-09-10T17:32:23.668Z,30.10
2023-09-10T17:34:51.771Z,30.10
2023-09-10T17:37:23.650Z,30.00
2023-09-10T17:39:52.104Z,30.00
2023-09-10T17:42:21.668Z,30.00
2023-09-10T17:44:52.455Z,30.00
2023-09-10T17:47:28.307Z,29.90
2023-09-10T17:50:06.450Z,29.90
2023-09-10T17:52:36.087Z,29.90
2023-09-10T17:55:06.686Z,29.90
2023-09-10T17:57:36.396Z,29.80
2023-09-10T18:00:05.216Z,29.80
2023-09-10T18:02:33.721Z,29.80
2023-09-10T18:05:02.064Z,29.70
2023-09-10T18:07:30.696Z,29.70
2023-09-10T18:09:59.099Z,29.60
2023-09-10T18:12:27.406Z,29.60
2023-09-10T18:14:56.842Z,29.60
2023-09-10T18:17:25.071Z,29.60
2023-09-10T18:19:53.332Z,29.60
2023-09-10T18:22:21.407Z,29.50
2023-09-10T18:24:49.663Z,29.50
2023-09-10T18:27:17.825Z,29.40
2023-09-10T18:29:46.285Z,29.40
2023-09-10T18:32:16.021Z,29.40
2023-09-10T18:34:44.508Z,29.30
2023-09-10T18:37:14.393Z,29.30
2023-09-10T18:39:42.461Z,29.30
2023-09-10T18:42:10.634Z,29.20
2023-09-10T18:44:38.758Z,29.20
2023-09-10T18:47:10.336Z,29.20
2023-09-10T18:49:40.362Z,29.20
2023-09-10T18:52:09.857Z,29.10
2023-09-10T18:54:40.145Z,29.10
2023-09-10T18:57:08.990Z,29.10
2023-09-10T18:59:37.144Z,29.10
2023-09-10T19:02:05.635Z,29.00
2023-09-10T19:04:33.945Z,29.00
2023-09-10T19:07:03.711Z,29.00
2023-09-10T19:09:33.895Z,29.00
2023-09-10T19:12:04.065Z,28.90
2023-09-10T19:14:33.136Z,28.90
2023-09-10T19:17:01.235Z,28.80
2023-09-10T19:19:29.741Z,28.90
2023-09-10T19:21:59.159Z,28.80
2023-09-10T19:24:29.098Z,28.80
2023-09-10T19:26:57.561Z,28.80
2023-09-10T19:29:25.912Z,28.80
2023-09-10T19:31:57.307Z,28.70
2023-09-10T19:34:25.747Z,28.70
2023-09-10T19:36:53.877Z,28.70
2023-09-10T19:39:30.516Z,28.70
2023-09-10T19:41:59.678Z,28.70
2023-09-10T19:44:48.709Z,28.60
2023-09-10T19:47:17.007Z,28.60
2023-09-10T19:49:46.115Z,28.60
2023-09-10T19:52:14.379Z,28.60
2023-09-10T19:54:50.101Z,28.50
2023-09-10T19:57:28.626Z,28.50
2023-09-10T19:59:57.564Z,28.50
2023-09-10T20:02:25.821Z,28.50
2023-09-10T20:04:54.196Z,28.50
2023-09-10T20:07:23.278Z,28.40
2023-09-10T20:09:53.440Z,28.40
2023-09-10T20:12:22.315Z,28.40
2023-09-10T20:15:13.726Z,28.40
2023-09-10T20:17:42.397Z,28.30
2023-09-10T20:20:13.568Z,28.30
2023-09-10T20:22:43.308Z,28.30
2023-09-10T20:25:13.086Z,28.30
2023-09-10T20:27:41.706Z,28.30
2023-09-10T20:30:11.770Z,28.30
2023-09-10T20:32:43.494Z,28.30
2023-09-10T20:35:12.096Z,28.30
2023-09-10T20:38:02.621Z,28.20
2023-09-10T20:40:34.255Z,28.20
2023-09-10T20:43:04.017Z,28.20
2023-09-10T20:45:32.855Z,28.10
2023-09-10T20:48:02.120Z,28.10
2023-09-10T20:50:31.796Z,28.10
2023-09-10T20:53:02.225Z,28.10
2023-09-10T20:55:34.245Z,28.10
2023-09-10T20:58:02.310Z,28.00
2023-09-10T21:00:31.184Z,28.00
2023-09-10T21:03:04.970Z,28.00
2023-09-10T21:05:41.503Z,28.00
2023-09-10T21:08:10.304Z,28.00
2023-09-10T21:10:40.759Z,28.00
2023-09-10T21:13:11.818Z,27.90
2023-09-10T21:15:40.390Z,27.90
2023-09-10T21:18:09.560Z,27.90
2023-09-10T21:20:39.092Z,27.90
2023-09-10T21:23:07.772Z,27.90
2023-09-10T21:25:37.718Z,27.80
2023-09-10T21:28:11.402Z,27.80
2023-09-10T21:30:39.520Z,27.80
2023-09-10T21:33:07.980Z,27.80
2023-09-10T21:35:37.455Z,27.80
2023-09-10T21:38:06.219Z,27.70
2023-09-10T21:40:37.351Z,27.70
2023-09-10T21:43:10.162Z,27.70
2023-09-10T21:45:40.812Z,27.70
2023-09-10T21:48:12.690Z,27.70
2023-09-10T21:50:41.831Z,27.70
2023-09-10T21:53:30.070Z,27.70
2023-09-10T21:55:58.925Z,27.60
2023-09-10T21:58:28.066Z,27.60
2023-09-10T22:01:00.214Z,27.60
2023-09-10T22:03:28.707Z,27.60
2023-09-10T22:05:59.451Z,27.50
2023-09-10T22:08:30.757Z,27.50
2023-09-10T22:11:00.188Z,27.50
2023-09-10T22:13:30.311Z,27.50
2023-09-10T22:16:00.526Z,27.50
2023-09-10T22:18:28.993Z,27.40
2023-09-10T22:21:00.120Z,27.40
2023-09-10T22:23:28.923Z,27.40
2023-09-10T22:25:58.705Z,27.40
2023-09-10T22:28:27.486Z,27.40
2023-09-10T22:30:56.941Z,27.40
2023-09-10T22:33:27.091Z,27.40
2023-09-10T22:35:57.380Z,27.40
2023-09-10T22:38:25.741Z,27.40
2023-09-10T22:40:56.397Z,27.40
2023-09-10T22:43:44.906Z,27.30
2023-09-10T22:46:13.106Z,27.30
2023-09-10T22:48:42.733Z,27.30
2023-09-10T22:51:13.810Z,27.30
2023-09-10T22:53:42.974Z,27.30
2023-09-10T22:56:11.086Z,27.30
2023-09-10T22:58:39.913Z,27.30
2023-09-10T23:01:08.553Z,27.30
2023-09-10T23:03:39.577Z,27.30
2023-09-10T23:06:09.441Z,27.30
2023-09-10T23:08:38.302Z,27.20
2023-09-10T23:11:15.258Z,27.20
2023-09-10T23:13:44.118Z,27.20
2023-09-10T23:16:12.463Z,27.20
2023-09-10T23:18:41.361Z,27.20
2023-09-10T23:21:11.558Z,27.20
2023-09-10T23:23:42.354Z,27.10
2023-09-10T23:26:11.923Z,27.10
2023-09-10T23:28:40.866Z,27.10
2023-09-10T23:31:11.701Z,27.10
2023-09-10T23:33:40.087Z,27.10
2023-09-10T23:36:08.524Z,27.10
2023-09-10T23:38:38.479Z,27.10
2023-09-10T23:41:09.503Z,27.10
2023-09-10T23:43:39.785Z,27.10
2023-09-10T23:46:08.386Z,27.00
2023-09-10T23:48:36.676Z,27.00
2023-09-10T23:51:06.228Z,27.00
2023-09-10T23:53:38.820Z,27.00
2023-09-10T23:56:06.953Z,27.00
2023-09-10T23:58:36.942Z,27.00
